sensor_id;sensor_type;location;lat;lon;timestamp;P1;durP1;ratioP1;P2;durP2;ratioP2
74656;SDS011;63185;45.642;13.764;2024-03-06T00:01:41;18.45;;;6.68;;
74656;SDS011;63185;45.642;13.764;2024-03-06T00:04:06;21.13;;;6.75;;
74656;SDS011;63185;45.642;13.764;2024-03-06T00:06:32;19.05;;;7.07;;
74656;SDS011;63185;45.642;13.764;2024-03-06T00:08:58;16.42;;;6.70;;
74656;SDS011;63185;45.642;13.764;2024-03-06T00:11:24;18.60;;;7.22;;
74656;SDS011;63185;45.642;13.764;2024-03-06T00:13:50;21.20;;;7.30;;
74656;SDS011;63185;45.642;13.764;2024-03-06T00:16:16;16.98;;;7.18;;
74656;SDS011;63185;45.642;13.764;2024-03-06T00:18:42;21.75;;;7.63;;
74656;SDS011;63185;45.642;13.764;2024-03-06T00:21:07;14.75;;;6.90;;
74656;SDS011;63185;45.642;13.764;2024-03-06T00:23:34;18.98;;;6.85;;
74656;SDS011;63185;45.642;13.764;2024-03-06T00:26:02;14.30;;;6.88;;
74656;SDS011;63185;45.642;13.764;2024-03-06T00:28:28;17.10;;;7.18;;
74656;SDS011;63185;45.642;13.764;2024-03-06T00:30:54;19.63;;;7.38;;
74656;SDS011;63185;45.642;13.764;2024-03-06T00:33:20;19.63;;;6.80;;
74656;SDS011;63185;45.642;13.764;2024-03-06T00:35:46;19.42;;;7.15;;
74656;SDS011;63185;45.642;13.764;2024-03-06T00:38:12;16.17;;;6.63;;
74656;SDS011;63185;45.642;13.764;2024-03-06T00:40:38;15.10;;;6.72;;
74656;SDS011;63185;45.642;13.764;2024-03-06T00:43:04;18.33;;;7.40;;
74656;SDS011;63185;45.642;13.764;2024-03-06T00:45:30;17.30;;;7.03;;
74656;SDS011;63185;45.642;13.764;2024-03-06T00:47:56;21.20;;;7.35;;
74656;SDS011;63185;45.642;13.764;2024-03-06T00:50:22;20.08;;;6.63;;
74656;SDS011;63185;45.642;13.764;2024-03-06T00:52:48;18.40;;;7.70;;
74656;SDS011;63185;45.642;13.764;2024-03-06T00:55:14;15.43;;;6.60;;
74656;SDS011;63185;45.642;13.764;2024-03-06T00:57:40;19.60;;;7.22;;
74656;SDS011;63185;45.642;13.764;2024-03-06T01:00:06;18.45;;;7.45;;
74656;SDS011;63185;45.642;13.764;2024-03-06T01:02:38;15.65;;;6.88;;
74656;SDS011;63185;45.642;13.764;2024-03-06T01:05:05;16.52;;;7.93;;
74656;SDS011;63185;45.642;13.764;2024-03-06T01:10:00;16.13;;;7.03;;
74656;SDS011;63185;45.642;13.764;2024-03-06T01:12:26;24.02;;;7.70;;
74656;SDS011;63185;45.642;13.764;2024-03-06T01:14:52;20.33;;;7.53;;
74656;SDS011;63185;45.642;13.764;2024-03-06T01:17:18;17.40;;;7.85;;
74656;SDS011;63185;45.642;13.764;2024-03-06T01:19:43;15.18;;;7.28;;
74656;SDS011;63185;45.642;13.764;2024-03-06T01:22:10;22.15;;;8.10;;
74656;SDS011;63185;45.642;13.764;2024-03-06T01:24:35;19.00;;;8.43;;
74656;SDS011;63185;45.642;13.764;2024-03-06T01:27:01;15.60;;;7.75;;
74656;SDS011;63185;45.642;13.764;2024-03-06T01:29:31;16.15;;;8.10;;
74656;SDS011;63185;45.642;13.764;2024-03-06T01:34:23;14.48;;;7.53;;
74656;SDS011;63185;45.642;13.764;2024-03-06T01:36:48;15.77;;;8.32;;
74656;SDS011;63185;45.642;13.764;2024-03-06T01:39:14;22.17;;;8.73;;
74656;SDS011;63185;45.642;13.764;2024-03-06T01:41:46;20.17;;;8.57;;
74656;SDS011;63185;45.642;13.764;2024-03-06T01:44:16;18.08;;;8.80;;
74656;SDS011;63185;45.642;13.764;2024-03-06T01:46:43;23.50;;;9.15;;
74656;SDS011;63185;45.642;13.764;2024-03-06T01:49:10;18.45;;;8.95;;
74656;SDS011;63185;45.642;13.764;2024-03-06T01:51:38;18.33;;;8.32;;
74656;SDS011;63185;45.642;13.764;2024-03-06T01:54:05;18.45;;;9.27;;
74656;SDS011;63185;45.642;13.764;2024-03-06T01:56:34;19.65;;;8.90;;
74656;SDS011;63185;45.642;13.764;2024-03-06T01:59:02;21.50;;;9.00;;
74656;SDS011;63185;45.642;13.764;2024-03-06T02:01:29;18.25;;;8.60;;
74656;SDS011;63185;45.642;13.764;2024-03-06T02:03:56;18.83;;;8.45;;
74656;SDS011;63185;45.642;13.764;2024-03-06T02:06:21;19.63;;;8.82;;
74656;SDS011;63185;45.642;13.764;2024-03-06T02:08:48;18.45;;;8.73;;
74656;SDS011;63185;45.642;13.764;2024-03-06T02:11:13;19.98;;;8.80;;
74656;SDS011;63185;45.642;13.764;2024-03-06T02:13:40;20.75;;;9.07;;
74656;SDS011;63185;45.642;13.764;2024-03-06T02:16:07;22.05;;;9.18;;
74656;SDS011;63185;45.642;13.764;2024-03-06T02:18:33;21.02;;;9.32;;
74656;SDS011;63185;45.642;13.764;2024-03-06T02:20:58;17.77;;;8.90;;
74656;SDS011;63185;45.642;13.764;2024-03-06T02:23:24;22.73;;;9.25;;
74656;SDS011;63185;45.642;13.764;2024-03-06T02:25:50;21.38;;;10.02;;
74656;SDS011;63185;45.642;13.764;2024-03-06T02:28:16;19.65;;;9.15;;
74656;SDS011;63185;45.642;13.764;2024-03-06T02:30:43;23.48;;;9.25;;
74656;SDS011;63185;45.642;13.764;2024-03-06T02:33:09;16.70;;;9.23;;
74656;SDS011;63185;45.642;13.764;2024-03-06T02:35:35;20.33;;;8.90;;
74656;SDS011;63185;45.642;13.764;2024-03-06T02:38:01;15.60;;;8.32;;
74656;SDS011;63185;45.642;13.764;2024-03-06T02:40:29;18.52;;;7.82;;
74656;SDS011;63185;45.642;13.764;2024-03-06T02:42:55;16.13;;;8.52;;
74656;SDS011;63185;45.642;13.764;2024-03-06T02:45:21;16.60;;;8.10;;
74656;SDS011;63185;45.642;13.764;2024-03-06T02:47:47;21.00;;;8.50;;
74656;SDS011;63185;45.642;13.764;2024-03-06T02:50:12;18.27;;;8.77;;
74656;SDS011;63185;45.642;13.764;2024-03-06T02:52:39;17.77;;;8.35;;
74656;SDS011;63185;45.642;13.764;2024-03-06T02:55:05;22.75;;;8.70;;
74656;SDS011;63185;45.642;13.764;2024-03-06T02:57:31;20.55;;;7.03;;
74656;SDS011;63185;45.642;13.764;2024-03-06T02:59:57;22.02;;;6.88;;
74656;SDS011;63185;45.642;13.764;2024-03-06T03:02:23;20.63;;;5.53;;
74656;SDS011;63185;45.642;13.764;2024-03-06T03:04:52;23.25;;;5.72;;
74656;SDS011;63185;45.642;13.764;2024-03-06T03:07:18;21.75;;;6.15;;
74656;SDS011;63185;45.642;13.764;2024-03-06T03:09:47;18.73;;;5.55;;
74656;SDS011;63185;45.642;13.764;2024-03-06T03:12:12;29.40;;;5.07;;
74656;SDS011;63185;45.642;13.764;2024-03-06T03:14:41;22.80;;;5.18;;
74656;SDS011;63185;45.642;13.764;2024-03-06T03:17:08;25.75;;;5.95;;
74656;SDS011;63185;45.642;13.764;2024-03-06T03:19:34;25.70;;;5.68;;
74656;SDS011;63185;45.642;13.764;2024-03-06T03:22:00;23.50;;;5.75;;
74656;SDS011;63185;45.642;13.764;2024-03-06T03:24:25;26.83;;;6.13;;
74656;SDS011;63185;45.642;13.764;2024-03-06T03:26:52;26.48;;;5.70;;
74656;SDS011;63185;45.642;13.764;2024-03-06T03:29:18;26.33;;;5.38;;
74656;SDS011;63185;45.642;13.764;2024-03-06T03:31:43;24.20;;;5.05;;
74656;SDS011;63185;45.642;13.764;2024-03-06T03:34:09;23.27;;;4.97;;
74656;SDS011;63185;45.642;13.764;2024-03-06T03:36:41;28.13;;;5.40;;
74656;SDS011;63185;45.642;13.764;2024-03-06T03:39:07;19.70;;;4.78;;
74656;SDS011;63185;45.642;13.764;2024-03-06T03:41:43;22.27;;;5.40;;
74656;SDS011;63185;45.642;13.764;2024-03-06T03:44:13;24.48;;;5.22;;
74656;SDS011;63185;45.642;13.764;2024-03-06T03:46:39;21.13;;;5.22;;
74656;SDS011;63185;45.642;13.764;2024-03-06T03:49:05;19.70;;;5.10;;
74656;SDS011;63185;45.642;13.764;2024-03-06T03:51:30;20.30;;;5.15;;
74656;SDS011;63185;45.642;13.764;2024-03-06T03:53:56;20.75;;;5.18;;
74656;SDS011;63185;45.642;13.764;2024-03-06T03:56:22;18.80;;;5.20;;
74656;SDS011;63185;45.642;13.764;2024-03-06T03:58:47;27.58;;;5.15;;
74656;SDS011;63185;45.642;13.764;2024-03-06T04:01:13;27.52;;;5.60;;
74656;SDS011;63185;45.642;13.764;2024-03-06T04:03:38;20.52;;;5.30;;
74656;SDS011;63185;45.642;13.764;2024-03-06T04:06:05;21.67;;;4.93;;
74656;SDS011;63185;45.642;13.764;2024-03-06T04:08:32;16.90;;;5.07;;
74656;SDS011;63185;45.642;13.764;2024-03-06T04:10:58;21.05;;;5.40;;
74656;SDS011;63185;45.642;13.764;2024-03-06T04:13:23;27.88;;;5.07;;
74656;SDS011;63185;45.642;13.764;2024-03-06T04:15:49;21.60;;;5.72;;
74656;SDS011;63185;45.642;13.764;2024-03-06T04:18:15;27.13;;;5.80;;
74656;SDS011;63185;45.642;13.764;2024-03-06T04:20:40;21.15;;;5.60;;
74656;SDS011;63185;45.642;13.764;2024-03-06T04:23:06;21.23;;;6.43;;
74656;SDS011;63185;45.642;13.764;2024-03-06T04:25:32;30.95;;;7.47;;
74656;SDS011;63185;45.642;13.764;2024-03-06T04:27:58;20.95;;;7.10;;
74656;SDS011;63185;45.642;13.764;2024-03-06T04:30:23;32.78;;;9.05;;
74656;SDS011;63185;45.642;13.764;2024-03-06T04:32:50;27.10;;;9.32;;
74656;SDS011;63185;45.642;13.764;2024-03-06T04:35:15;25.52;;;9.98;;
74656;SDS011;63185;45.642;13.764;2024-03-06T04:37:41;27.52;;;10.07;;
74656;SDS011;63185;45.642;13.764;2024-03-06T04:40:08;24.55;;;10.93;;
74656;SDS011;63185;45.642;13.764;2024-03-06T04:42:35;30.23;;;11.55;;
74656;SDS011;63185;45.642;13.764;2024-03-06T04:45:01;31.73;;;11.32;;
74656;SDS011;63185;45.642;13.764;2024-03-06T04:47:36;27.35;;;11.63;;
74656;SDS011;63185;45.642;13.764;2024-03-06T04:50:01;31.13;;;12.05;;
74656;SDS011;63185;45.642;13.764;2024-03-06T04:52:27;29.85;;;12.65;;
74656;SDS011;63185;45.642;13.764;2024-03-06T04:54:53;27.17;;;11.82;;
74656;SDS011;63185;45.642;13.764;2024-03-06T04:57:18;25.27;;;12.15;;
74656;SDS011;63185;45.642;13.764;2024-03-06T04:59:44;23.85;;;12.05;;
74656;SDS011;63185;45.642;13.764;2024-03-06T05:02:10;24.65;;;11.38;;
74656;SDS011;63185;45.642;13.764;2024-03-06T05:04:35;23.48;;;11.40;;
74656;SDS011;63185;45.642;13.764;2024-03-06T05:07:01;23.95;;;10.32;;
74656;SDS011;63185;45.642;13.764;2024-03-06T05:09:27;23.63;;;10.60;;
74656;SDS011;63185;45.642;13.764;2024-03-06T05:11:53;26.50;;;10.82;;
74656;SDS011;63185;45.642;13.764;2024-03-06T05:14:18;22.58;;;9.77;;
74656;SDS011;63185;45.642;13.764;2024-03-06T05:16:45;21.13;;;9.15;;
74656;SDS011;63185;45.642;13.764;2024-03-06T05:19:10;24.95;;;9.85;;
74656;SDS011;63185;45.642;13.764;2024-03-06T05:21:36;24.08;;;9.60;;
74656;SDS011;63185;45.642;13.764;2024-03-06T05:24:02;26.58;;;9.70;;
74656;SDS011;63185;45.642;13.764;2024-03-06T05:26:27;29.48;;;9.57;;
74656;SDS011;63185;45.642;13.764;2024-03-06T05:28:53;27.60;;;8.77;;
74656;SDS011;63185;45.642;13.764;2024-03-06T05:31:19;23.98;;;8.23;;
74656;SDS011;63185;45.642;13.764;2024-03-06T05:33:48;25.75;;;8.63;;
74656;SDS011;63185;45.642;13.764;2024-03-06T05:36:17;24.17;;;7.40;;
74656;SDS011;63185;45.642;13.764;2024-03-06T05:38:44;18.92;;;6.90;;
74656;SDS011;63185;45.642;13.764;2024-03-06T05:41:10;23.77;;;7.68;;
74656;SDS011;63185;45.642;13.764;2024-03-06T05:43:36;22.60;;;7.35;;
74656;SDS011;63185;45.642;13.764;2024-03-06T05:46:02;21.15;;;6.55;;
74656;SDS011;63185;45.642;13.764;2024-03-06T05:48:27;18.83;;;6.95;;
74656;SDS011;63185;45.642;13.764;2024-03-06T05:50:53;14.23;;;5.88;;
74656;SDS011;63185;45.642;13.764;2024-03-06T05:53:19;18.35;;;6.70;;
74656;SDS011;63185;45.642;13.764;2024-03-06T05:55:45;20.42;;;6.55;;
74656;SDS011;63185;45.642;13.764;2024-03-06T05:58:11;21.35;;;7.28;;
74656;SDS011;63185;45.642;13.764;2024-03-06T06:00:37;17.27;;;6.50;;
74656;SDS011;63185;45.642;13.764;2024-03-06T06:03:04;16.33;;;6.20;;
74656;SDS011;63185;45.642;13.764;2024-03-06T06:05:30;17.23;;;5.90;;
74656;SDS011;63185;45.642;13.764;2024-03-06T06:07:55;17.63;;;6.35;;
74656;SDS011;63185;45.642;13.764;2024-03-06T06:10:21;21.95;;;7.15;;
74656;SDS011;63185;45.642;13.764;2024-03-06T06:12:47;27.90;;;7.05;;
74656;SDS011;63185;45.642;13.764;2024-03-06T06:15:12;17.30;;;6.18;;
74656;SDS011;63185;45.642;13.764;2024-03-06T06:17:38;21.75;;;6.78;;
74656;SDS011;63185;45.642;13.764;2024-03-06T06:20:07;17.95;;;6.53;;
74656;SDS011;63185;45.642;13.764;2024-03-06T06:22:37;14.35;;;5.30;;
74656;SDS011;63185;45.642;13.764;2024-03-06T06:25:03;14.50;;;5.40;;
74656;SDS011;63185;45.642;13.764;2024-03-06T06:27:29;17.85;;;6.47;;
74656;SDS011;63185;45.642;13.764;2024-03-06T06:29:55;15.68;;;6.00;;
74656;SDS011;63185;45.642;13.764;2024-03-06T06:32:20;14.70;;;4.97;;
74656;SDS011;63185;45.642;13.764;2024-03-06T06:34:46;19.35;;;5.50;;
74656;SDS011;63185;45.642;13.764;2024-03-06T06:37:12;17.15;;;5.28;;
74656;SDS011;63185;45.642;13.764;2024-03-06T06:39:37;16.52;;;4.88;;
74656;SDS011;63185;45.642;13.764;2024-03-06T06:42:03;20.55;;;5.10;;
74656;SDS011;63185;45.642;13.764;2024-03-06T06:44:29;11.90;;;4.15;;
74656;SDS011;63185;45.642;13.764;2024-03-06T06:46:55;12.38;;;5.25;;
74656;SDS011;63185;45.642;13.764;2024-03-06T06:49:21;19.20;;;6.28;;
74656;SDS011;63185;45.642;13.764;2024-03-06T06:51:47;19.38;;;6.20;;
74656;SDS011;63185;45.642;13.764;2024-03-06T06:54:14;12.55;;;5.90;;
74656;SDS011;63185;45.642;13.764;2024-03-06T06:56:40;24.95;;;7.32;;
74656;SDS011;63185;45.642;13.764;2024-03-06T06:59:05;16.20;;;8.43;;
74656;SDS011;63185;45.642;13.764;2024-03-06T07:01:31;18.75;;;9.15;;
74656;SDS011;63185;45.642;13.764;2024-03-06T07:03:58;22.40;;;9.77;;
74656;SDS011;63185;45.642;13.764;2024-03-06T07:06:24;25.13;;;11.63;;
74656;SDS011;63185;45.642;13.764;2024-03-06T07:08:50;26.25;;;11.45;;
74656;SDS011;63185;45.642;13.764;2024-03-06T07:11:16;26.40;;;11.82;;
74656;SDS011;63185;45.642;13.764;2024-03-06T07:13:43;28.52;;;12.05;;
74656;SDS011;63185;45.642;13.764;2024-03-06T07:16:09;23.05;;;12.65;;
74656;SDS011;63185;45.642;13.764;2024-03-06T07:18:34;34.00;;;14.63;;
74656;SDS011;63185;45.642;13.764;2024-03-06T07:21:00;25.40;;;15.25;;
74656;SDS011;63185;45.642;13.764;2024-03-06T07:23:26;28.02;;;15.20;;
74656;SDS011;63185;45.642;13.764;2024-03-06T07:25:51;27.35;;;16.15;;
74656;SDS011;63185;45.642;13.764;2024-03-06T07:28:17;30.45;;;16.02;;
74656;SDS011;63185;45.642;13.764;2024-03-06T07:30:44;27.08;;;17.17;;
74656;SDS011;63185;45.642;13.764;2024-03-06T07:33:09;29.50;;;16.35;;
74656;SDS011;63185;45.642;13.764;2024-03-06T07:35:35;31.90;;;16.85;;
74656;SDS011;63185;45.642;13.764;2024-03-06T07:38:01;29.35;;;16.65;;
74656;SDS011;63185;45.642;13.764;2024-03-06T07:40:29;26.92;;;16.20;;
74656;SDS011;63185;45.642;13.764;2024-03-06T07:42:55;28.42;;;15.43;;
74656;SDS011;63185;45.642;13.764;2024-03-06T07:45:21;23.77;;;14.88;;
74656;SDS011;63185;45.642;13.764;2024-03-06T07:47:47;27.67;;;15.85;;
74656;SDS011;63185;45.642;13.764;2024-03-06T07:50:13;27.33;;;15.55;;
74656;SDS011;63185;45.642;13.764;2024-03-06T07:52:44;24.33;;;14.45;;
74656;SDS011;63185;45.642;13.764;2024-03-06T07:55:11;27.48;;;14.40;;
74656;SDS011;63185;45.642;13.764;2024-03-06T07:57:36;31.20;;;15.50;;
74656;SDS011;63185;45.642;13.764;2024-03-06T08:00:03;31.27;;;19.63;;
74656;SDS011;63185;45.642;13.764;2024-03-06T08:02:34;29.10;;;16.83;;
74656;SDS011;63185;45.642;13.764;2024-03-06T08:05:00;25.23;;;15.45;;
74656;SDS011;63185;45.642;13.764;2024-03-06T08:07:26;23.52;;;14.40;;
74656;SDS011;63185;45.642;13.764;2024-03-06T08:09:52;24.63;;;14.68;;
74656;SDS011;63185;45.642;13.764;2024-03-06T08:12:19;24.13;;;13.98;;
74656;SDS011;63185;45.642;13.764;2024-03-06T08:14:44;23.60;;;12.15;;
74656;SDS011;63185;45.642;13.764;2024-03-06T08:17:10;21.73;;;13.02;;
74656;SDS011;63185;45.642;13.764;2024-03-06T08:19:36;22.98;;;12.50;;
74656;SDS011;63185;45.642;13.764;2024-03-06T08:22:02;20.02;;;11.18;;
74656;SDS011;63185;45.642;13.764;2024-03-06T08:24:27;21.00;;;9.93;;
74656;SDS011;63185;45.642;13.764;2024-03-06T08:26:53;16.33;;;9.32;;
74656;SDS011;63185;45.642;13.764;2024-03-06T08:29:19;14.23;;;8.30;;
74656;SDS011;63185;45.642;13.764;2024-03-06T08:31:44;14.80;;;7.53;;
74656;SDS011;63185;45.642;13.764;2024-03-06T08:34:10;13.82;;;7.50;;
74656;SDS011;63185;45.642;13.764;2024-03-06T08:36:35;13.63;;;6.60;;
74656;SDS011;63185;45.642;13.764;2024-03-06T08:39:01;12.35;;;6.88;;
74656;SDS011;63185;45.642;13.764;2024-03-06T08:41:27;16.02;;;7.30;;
74656;SDS011;63185;45.642;13.764;2024-03-06T08:43:53;13.40;;;6.38;;
74656;SDS011;63185;45.642;13.764;2024-03-06T08:46:19;13.80;;;6.30;;
74656;SDS011;63185;45.642;13.764;2024-03-06T08:48:44;12.73;;;5.57;;
74656;SDS011;63185;45.642;13.764;2024-03-06T08:51:11;9.35;;;5.15;;
74656;SDS011;63185;45.642;13.764;2024-03-06T08:53:37;11.48;;;5.10;;
74656;SDS011;63185;45.642;13.764;2024-03-06T08:56:03;10.93;;;5.00;;
74656;SDS011;63185;45.642;13.764;2024-03-06T08:58:30;12.57;;;5.00;;
74656;SDS011;63185;45.642;13.764;2024-03-06T09:00:55;7.55;;;4.97;;
74656;SDS011;63185;45.642;13.764;2024-03-06T09:03:21;8.82;;;4.28;;
74656;SDS011;63185;45.642;13.764;2024-03-06T09:05:48;10.10;;;4.15;;
74656;SDS011;63185;45.642;13.764;2024-03-06T09:08:13;8.75;;;3.58;;
74656;SDS011;63185;45.642;13.764;2024-03-06T09:10:39;6.30;;;3.10;;
74656;SDS011;63185;45.642;13.764;2024-03-06T09:13:05;7.10;;;3.22;;
74656;SDS011;63185;45.642;13.764;2024-03-06T09:15:31;7.57;;;2.90;;
74656;SDS011;63185;45.642;13.764;2024-03-06T09:17:56;7.82;;;2.92;;
74656;SDS011;63185;45.642;13.764;2024-03-06T09:20:22;7.07;;;2.22;;
74656;SDS011;63185;45.642;13.764;2024-03-06T09:22:49;4.30;;;2.10;;
74656;SDS011;63185;45.642;13.764;2024-03-06T09:25:15;6.85;;;2.45;;
74656;SDS011;63185;45.642;13.764;2024-03-06T09:27:41;9.23;;;1.83;;
74656;SDS011;63185;45.642;13.764;2024-03-06T09:30:07;5.75;;;1.80;;
74656;SDS011;63185;45.642;13.764;2024-03-06T09:32:34;4.25;;;1.80;;
74656;SDS011;63185;45.642;13.764;2024-03-06T09:34:59;6.20;;;2.10;;
74656;SDS011;63185;45.642;13.764;2024-03-06T09:37:25;5.22;;;1.85;;
74656;SDS011;63185;45.642;13.764;2024-03-06T09:39:51;4.32;;;1.60;;
74656;SDS011;63185;45.642;13.764;2024-03-06T09:42:16;5.15;;;1.90;;
74656;SDS011;63185;45.642;13.764;2024-03-06T09:44:43;6.03;;;1.88;;
74656;SDS011;63185;45.642;13.764;2024-03-06T09:47:11;6.30;;;1.67;;
74656;SDS011;63185;45.642;13.764;2024-03-06T09:49:41;5.78;;;1.80;;
74656;SDS011;63185;45.642;13.764;2024-03-06T09:52:08;3.47;;;1.50;;
74656;SDS011;63185;45.642;13.764;2024-03-06T09:54:35;6.82;;;1.73;;
74656;SDS011;63185;45.642;13.764;2024-03-06T09:57:03;5.40;;;1.58;;
74656;SDS011;63185;45.642;13.764;2024-03-06T09:59:29;6.05;;;1.50;;
74656;SDS011;63185;45.642;13.764;2024-03-06T10:01:56;6.47;;;1.52;;
74656;SDS011;63185;45.642;13.764;2024-03-06T10:04:23;6.28;;;1.42;;
74656;SDS011;63185;45.642;13.764;2024-03-06T10:06:52;3.60;;;1.25;;
74656;SDS011;63185;45.642;13.764;2024-03-06T10:09:20;5.47;;;1.77;;
74656;SDS011;63185;45.642;13.764;2024-03-06T10:11:46;4.55;;;1.60;;
74656;SDS011;63185;45.642;13.764;2024-03-06T10:14:12;4.25;;;1.50;;
74656;SDS011;63185;45.642;13.764;2024-03-06T10:16:51;8.70;;;1.83;;
74656;SDS011;63185;45.642;13.764;2024-03-06T10:19:17;5.95;;;1.70;;
74656;SDS011;63185;45.642;13.764;2024-03-06T10:21:43;4.93;;;1.70;;
74656;SDS011;63185;45.642;13.764;2024-03-06T10:24:11;4.05;;;1.70;;
74656;SDS011;63185;45.642;13.764;2024-03-06T10:26:37;4.20;;;1.50;;
74656;SDS011;63185;45.642;13.764;2024-03-06T10:29:03;4.80;;;1.80;;
74656;SDS011;63185;45.642;13.764;2024-03-06T10:31:29;5.47;;;1.63;;
74656;SDS011;63185;45.642;13.764;2024-03-06T10:33:55;6.65;;;2.42;;
74656;SDS011;63185;45.642;13.764;2024-03-06T10:36:20;4.43;;;1.73;;
74656;SDS011;63185;45.642;13.764;2024-03-06T10:38:46;9.07;;;1.98;;
74656;SDS011;63185;45.642;13.764;2024-03-06T10:43:43;5.03;;;1.98;;
74656;SDS011;63185;45.642;13.764;2024-03-06T10:46:12;5.82;;;2.22;;
74656;SDS011;63185;45.642;13.764;2024-03-06T10:48:39;4.15;;;1.70;;
74656;SDS011;63185;45.642;13.764;2024-03-06T10:51:07;6.32;;;1.73;;
74656;SDS011;63185;45.642;13.764;2024-03-06T10:53:33;6.78;;;1.83;;
74656;SDS011;63185;45.642;13.764;2024-03-06T10:56:01;6.38;;;2.13;;
74656;SDS011;63185;45.642;13.764;2024-03-06T10:58:28;6.53;;;1.90;;
74656;SDS011;63185;45.642;13.764;2024-03-06T11:00:55;4.97;;;1.70;;
74656;SDS011;63185;45.642;13.764;2024-03-06T11:03:23;8.07;;;2.22;;
74656;SDS011;63185;45.642;13.764;2024-03-06T11:05:51;4.80;;;1.80;;
74656;SDS011;63185;45.642;13.764;2024-03-06T11:08:16;4.00;;;1.67;;
74656;SDS011;63185;45.642;13.764;2024-03-06T11:10:43;2.78;;;1.30;;
74656;SDS011;63185;45.642;13.764;2024-03-06T11:13:24;3.95;;;1.50;;
74656;SDS011;63185;45.642;13.764;2024-03-06T11:15:57;6.57;;;2.13;;
74656;SDS011;63185;45.642;13.764;2024-03-06T11:23:27;4.20;;;1.50;;
74656;SDS011;63185;45.642;13.764;2024-03-06T11:28:27;4.22;;;1.58;;
74656;SDS011;63185;45.642;13.764;2024-03-06T11:33:36;4.60;;;1.92;;
74656;SDS011;63185;45.642;13.764;2024-03-06T11:36:22;5.80;;;2.13;;
74656;SDS011;63185;45.642;13.764;2024-03-06T11:38:57;6.22;;;1.98;;
74656;SDS011;63185;45.642;13.764;2024-03-06T11:44:20;7.05;;;1.73;;
74656;SDS011;63185;45.642;13.764;2024-03-06T11:46:48;3.85;;;1.63;;
74656;SDS011;63185;45.642;13.764;2024-03-06T11:49:22;4.55;;;1.00;;
74656;SDS011;63185;45.642;13.764;2024-03-06T11:51:53;1.48;;;0.73;;
74656;SDS011;63185;45.642;13.764;2024-03-06T11:54:23;4.68;;;1.33;;
74656;SDS011;63185;45.642;13.764;2024-03-06T11:56:51;5.60;;;1.20;;
74656;SDS011;63185;45.642;13.764;2024-03-06T11:59:24;3.08;;;1.08;;
74656;SDS011;63185;45.642;13.764;2024-03-06T12:02:03;3.70;;;1.38;;
74656;SDS011;63185;45.642;13.764;2024-03-06T12:04:30;4.97;;;1.25;;
74656;SDS011;63185;45.642;13.764;2024-03-06T12:06:58;3.13;;;1.05;;
74656;SDS011;63185;45.642;13.764;2024-03-06T12:09:25;3.67;;;1.05;;
74656;SDS011;63185;45.642;13.764;2024-03-06T12:11:52;3.50;;;1.20;;
74656;SDS011;63185;45.642;13.764;2024-03-06T12:14:18;2.38;;;1.15;;
74656;SDS011;63185;45.642;13.764;2024-03-06T12:17:00;2.45;;;1.00;;
74656;SDS011;63185;45.642;13.764;2024-03-06T12:19:33;2.90;;;1.10;;
74656;SDS011;63185;45.642;13.764;2024-03-06T12:22:00;4.63;;;1.30;;
74656;SDS011;63185;45.642;13.764;2024-03-06T12:24:26;4.30;;;1.50;;
74656;SDS011;63185;45.642;13.764;2024-03-06T12:27:02;3.72;;;1.25;;
74656;SDS011;63185;45.642;13.764;2024-03-06T12:29:29;2.53;;;1.00;;
74656;SDS011;63185;45.642;13.764;2024-03-06T12:31:57;2.92;;;1.00;;
74656;SDS011;63185;45.642;13.764;2024-03-06T12:34:23;3.15;;;0.90;;
74656;SDS011;63185;45.642;13.764;2024-03-06T12:36:49;4.07;;;0.90;;
74656;SDS011;63185;45.642;13.764;2024-03-06T12:39:15;2.83;;;0.95;;
74656;SDS011;63185;45.642;13.764;2024-03-06T12:41:51;6.75;;;0.75;;
74656;SDS011;63185;45.642;13.764;2024-03-06T12:44:16;3.42;;;0.80;;
74656;SDS011;63185;45.642;13.764;2024-03-06T12:46:42;2.22;;;0.60;;
74656;SDS011;63185;45.642;13.764;2024-03-06T12:49:08;3.10;;;0.60;;
74656;SDS011;63185;45.642;13.764;2024-03-06T12:51:34;4.03;;;0.80;;
74656;SDS011;63185;45.642;13.764;2024-03-06T12:54:00;1.60;;;0.60;;
74656;SDS011;63185;45.642;13.764;2024-03-06T12:56:26;2.17;;;0.60;;
74656;SDS011;63185;45.642;13.764;2024-03-06T12:58:51;2.72;;;0.70;;
74656;SDS011;63185;45.642;13.764;2024-03-06T13:01:17;1.77;;;0.60;;
74656;SDS011;63185;45.642;13.764;2024-03-06T13:03:43;1.13;;;0.50;;
74656;SDS011;63185;45.642;13.764;2024-03-06T13:06:08;3.50;;;0.70;;
74656;SDS011;63185;45.642;13.764;2024-03-06T13:08:35;2.90;;;0.57;;
74656;SDS011;63185;45.642;13.764;2024-03-06T13:11:01;2.22;;;0.95;;
74656;SDS011;63185;45.642;13.764;2024-03-06T13:13:27;2.75;;;0.70;;
74656;SDS011;63185;45.642;13.764;2024-03-06T13:15:55;2.88;;;0.60;;
74656;SDS011;63185;45.642;13.764;2024-03-06T13:18:21;3.83;;;0.70;;
74656;SDS011;63185;45.642;13.764;2024-03-06T13:20:47;2.45;;;0.63;;
74656;SDS011;63185;45.642;13.764;2024-03-06T13:23:13;1.35;;;0.47;;
74656;SDS011;63185;45.642;13.764;2024-03-06T13:25:38;5.00;;;0.68;;
74656;SDS011;63185;45.642;13.764;2024-03-06T13:28:04;1.40;;;0.45;;
74656;SDS011;63185;45.642;13.764;2024-03-06T13:30:30;2.03;;;0.47;;
74656;SDS011;63185;45.642;13.764;2024-03-06T13:32:56;1.83;;;0.52;;
74656;SDS011;63185;45.642;13.764;2024-03-06T13:35:23;3.03;;;0.77;;
74656;SDS011;63185;45.642;13.764;2024-03-06T13:37:48;2.17;;;0.63;;
74656;SDS011;63185;45.642;13.764;2024-03-06T13:40:14;3.88;;;1.00;;
74656;SDS011;63185;45.642;13.764;2024-03-06T13:42:40;3.95;;;0.60;;
74656;SDS011;63185;45.642;13.764;2024-03-06T13:45:07;2.97;;;0.60;;
74656;SDS011;63185;45.642;13.764;2024-03-06T13:47:40;2.03;;;0.52;;
74656;SDS011;63185;45.642;13.764;2024-03-06T13:50:07;2.88;;;0.50;;
74656;SDS011;63185;45.642;13.764;2024-03-06T13:52:35;1.08;;;0.40;;
74656;SDS011;63185;45.642;13.764;2024-03-06T13:55:01;3.30;;;0.57;;
74656;SDS011;63185;45.642;13.764;2024-03-06T13:57:29;1.00;;;0.40;;
74656;SDS011;63185;45.642;13.764;2024-03-06T14:00:04;1.77;;;0.40;;
74656;SDS011;63185;45.642;13.764;2024-03-06T14:02:31;3.08;;;0.43;;
74656;SDS011;63185;45.642;13.764;2024-03-06T14:04:57;1.60;;;0.60;;
74656;SDS011;63185;45.642;13.764;2024-03-06T14:07:23;1.60;;;0.40;;
74656;SDS011;63185;45.642;13.764;2024-03-06T14:09:52;1.88;;;0.60;;
74656;SDS011;63185;45.642;13.764;2024-03-06T14:12:18;2.17;;;0.50;;
74656;SDS011;63185;45.642;13.764;2024-03-06T14:14:43;1.95;;;0.50;;
74656;SDS011;63185;45.642;13.764;2024-03-06T14:17:12;2.65;;;0.70;;
74656;SDS011;63185;45.642;13.764;2024-03-06T14:19:38;1.60;;;0.60;;
74656;SDS011;63185;45.642;13.764;2024-03-06T14:22:05;1.63;;;0.50;;
74656;SDS011;63185;45.642;13.764;2024-03-06T14:24:32;2.83;;;0.52;;
74656;SDS011;63185;45.642;13.764;2024-03-06T14:26:57;1.83;;;0.50;;
74656;SDS011;63185;45.642;13.764;2024-03-06T14:29:23;1.85;;;0.50;;
74656;SDS011;63185;45.642;13.764;2024-03-06T14:31:50;3.22;;;0.60;;
74656;SDS011;63185;45.642;13.764;2024-03-06T14:34:16;1.60;;;0.50;;
74656;SDS011;63185;45.642;13.764;2024-03-06T14:36:42;1.25;;;0.50;;
74656;SDS011;63185;45.642;13.764;2024-03-06T14:39:08;2.92;;;0.50;;
74656;SDS011;63185;45.642;13.764;2024-03-06T14:41:35;1.60;;;0.50;;